Time;durP1;ratioP1;P1;durP2;ratioP2;P2;SDS_P1;SDS_P2;PMS_P1;PMS_P2;Temp;Humidity;BMP_temperature;BMP_pressure;BME280_temperature;BME280_humidity;BME280_pressure;Samples;Min_cycle;Max_cycle;Signal;HPM_P1;HPM_P2
2023/03/10 00:00:53;;;;;;;5.03;4.63;;;22.60;49.50;;;;;;5032019;28;20474;-68
2023/03/10 00:03:21;;;;;;;5.33;4.83;;;22.60;49.40;;;;;;5029978;28;20466;-68
2023/03/10 00:05:50;;;;;;;5.50;4.70;;;22.60;49.30;;;;;;5027387;28;20570;-69
2023/03/10 00:08:18;;;;;;;4.93;4.13;;;22.60;49.40;;;;;;5030516;28;20450;-68
2023/03/10 00:10:47;;;;;;;4.33;3.93;;;22.60;49.20;;;;;;5029093;28;20477;-68
2023/03/10 00:13:15;;;;;;;4.47;4.07;;;22.50;49.20;;;;;;5030768;28;20566;-68
2023/03/10 00:15:44;;;;;;;5.30;3.80;;;22.50;49.20;;;;;;5024873;28;21391;-67
2023/03/10 00:18:13;;;;;;;4.50;4.10;;;22.50;49.20;;;;;;5030324;28;20447;-68
2023/03/10 00:20:41;;;;;;;3.63;3.30;;;22.50;49.30;;;;;;5030821;28;20451;-67
2023/03/10 00:23:09;;;;;;;4.27;3.87;;;22.40;49.30;;;;;;5028366;28;20861;-67
2023/03/10 00:25:38;;;;;;;4.53;3.87;;;22.40;49.20;;;;;;5025954;28;20562;-67
2023/03/10 00:28:06;;;;;;;4.60;3.90;;;22.40;49.20;;;;;;5030888;28;20527;-68
2023/03/10 00:30:35;;;;;;;3.83;3.27;;;22.40;48.90;;;;;;5029337;28;20498;-68
2023/03/10 00:33:04;;;;;;;4.27;3.87;;;22.40;48.90;;;;;;5026105;28;20479;-67
2023/03/10 00:35:33;;;;;;;5.17;3.87;;;22.40;48.90;;;;;;5026660;28;20541;-68
2023/03/10 00:38:02;;;;;;;3.33;3.03;;;22.40;48.80;;;;;;5030428;28;20459;-67
2023/03/10 00:40:30;;;;;;;4.03;3.60;;;22.40;48.80;;;;;;5029113;28;20452;-68
2023/03/10 00:42:59;;;;;;;3.90;3.10;;;22.40;48.80;;;;;;5029283;28;20953;-67
2023/03/10 00:45:27;;;;;;;4.40;4.00;;;22.30;48.80;;;;;;5030473;28;20542;-67
2023/03/10 00:47:55;;;;;;;3.37;2.73;;;22.30;48.70;;;;;;5029372;28;20943;-68
2023/03/10 00:50:25;;;;;;;3.30;3.00;;;22.30;48.70;;;;;;5023215;28;20467;-67
2023/03/10 00:52:53;;;;;;;4.00;3.60;;;22.30;48.90;;;;;;5027917;28;20993;-67
2023/03/10 00:55:21;;;;;;;4.40;3.27;;;22.30;48.80;;;;;;5028581;28;20454;-68
2023/03/10 00:57:49;;;;;;;3.30;3.00;;;22.30;48.90;;;;;;5029329;28;20513;-68
2023/03/10 01:00:18;;;;;;;11.83;3.57;;;22.30;48.90;;;;;;5031470;28;20467;-68
2023/03/10 01:02:46;;;;;;;3.50;3.20;;;22.30;49.00;;;;;;5028184;28;20550;-68
2023/03/10 01:05:15;;;;;;;3.63;3.03;;;22.30;49.00;;;;;;5030002;28;20566;-67
2023/03/10 01:07:44;;;;;;;4.30;3.23;;;22.40;49.00;;;;;;5025523;28;20977;-68
2023/03/10 01:10:13;;;;;;;3.83;2.90;;;22.40;49.00;;;;;;5030212;28;20502;-67
2023/03/10 01:12:41;;;;;;;3.30;3.00;;;22.40;48.90;;;;;;5030159;28;20879;-68
2023/03/10 01:15:12;;;;;;;2.90;2.70;;;22.40;49.00;;;;;;5030058;28;20461;-68
2023/03/10 01:17:40;;;;;;;3.13;2.93;;;22.40;48.90;;;;;;5029241;28;20466;-68
2023/03/10 01:20:14;;;;;;;4.30;3.60;;;22.40;48.90;;;;;;5029626;28;20977;-68
2023/03/10 01:22:43;;;;;;;3.07;2.87;;;22.40;48.80;;;;;;5026812;28;20533;-68
2023/03/10 01:25:15;;;;;;;2.80;2.60;;;22.40;48.80;;;;;;5028816;28;20455;-69
2023/03/10 01:27:44;;;;;;;2.70;2.50;;;22.40;48.70;;;;;;5029865;28;21009;-68
2023/03/10 01:30:13;;;;;;;3.50;3.17;;;22.40;48.70;;;;;;5027015;28;20908;-68
2023/03/10 01:32:41;;;;;;;3.20;2.67;;;22.40;48.60;;;;;;5028770;28;20489;-68
2023/03/10 01:35:11;;;;;;;3.00;2.70;;;22.40;48.60;;;;;;5029407;28;20447;-68
2023/03/10 01:37:39;;;;;;;3.07;2.80;;;22.40;48.70;;;;;;5032004;28;20743;-67
2023/03/10 01:40:17;;;;;;;2.63;2.43;;;22.40;48.60;;;;;;5033761;28;20845;-69
2023/03/10 01:42:46;;;;;;;3.70;2.57;;;22.40;48.60;;;;;;5034486;28;20454;-68
2023/03/10 01:45:47;;;;;;;3.03;2.70;;;22.40;48.60;;;;;;5027046;28;20978;-68
2023/03/10 01:48:19;;;;;;;3.20;2.90;;;22.40;48.70;;;;;;5031597;28;20833;-68
2023/03/10 01:50:52;;;;;;;2.90;2.70;;;22.40;48.60;;;;;;5032867;28;20548;-68
2023/03/10 01:53:22;;;;;;;3.30;2.70;;;22.40;48.60;;;;;;5033378;28;20485;-68
2023/03/10 01:55:55;;;;;;;3.63;2.60;;;22.30;48.50;;;;;;5032673;28;20464;-68
2023/03/10 01:58:29;;;;;;;2.33;2.13;;;22.30;48.60;;;;;;5032625;28;20467;-68
2023/03/10 02:00:57;;;;;;;3.80;2.60;;;22.30;48.60;;;;;;5030345;28;20529;-68
2023/03/10 02:03:30;;;;;;;3.10;2.90;;;22.30;48.60;;;;;;5026818;28;20463;-68
2023/03/10 02:06:03;;;;;;;3.20;2.90;;;22.30;48.60;;;;;;5033801;28;20470;-68
2023/03/10 02:08:35;;;;;;;2.93;2.23;;;22.30;48.50;;;;;;5033130;28;20490;-68
2023/03/10 02:11:05;;;;;;;2.80;2.60;;;22.30;48.60;;;;;;5033206;28;20450;-68
2023/03/10 02:13:34;;;;;;;2.57;2.37;;;22.30;48.50;;;;;;5032716;28;20518;-68
2023/03/10 02:16:02;;;;;;;2.87;2.60;;;22.30;48.60;;;;;;5032938;28;20454;-68
2023/03/10 02:18:31;;;;;;;2.53;2.33;;;22.30;48.60;;;;;;5031375;28;20452;-68
2023/03/10 02:21:07;;;;;;;4.47;2.27;;;22.30;48.60;;;;;;5031917;28;20443;-69
2023/03/10 02:23:42;;;;;;;2.33;2.13;;;22.30;48.70;;;;;;5031738;28;20467;-67
2023/03/10 02:26:32;;;;;;;3.27;2.97;;;22.30;48.70;;;;;;5020439;28;21023;-68
2023/03/10 02:29:07;;;;;;;3.60;2.57;;;22.30;48.70;;;;;;5028507;28;20467;-68
2023/03/10 02:31:36;;;;;;;2.77;2.30;;;22.30;48.80;;;;;;5023873;28;20490;-67
2023/03/10 02:34:06;;;;;;;3.47;2.63;;;22.30;48.60;;;;;;5030884;28;20562;-68
2023/03/10 02:36:34;;;;;;;5.67;2.77;;;22.30;48.70;;;;;;5024771;28;20546;-68
2023/03/10 02:39:04;;;;;;;2.43;2.20;;;22.30;48.60;;;;;;5032798;28;20458;-68
2023/03/10 02:41:35;;;;;;;2.90;2.60;;;22.30;48.60;;;;;;5031687;28;20864;-67
2023/03/10 02:44:09;;;;;;;2.80;2.57;;;22.30;48.60;;;;;;5031475;28;20508;-68
2023/03/10 02:46:38;;;;;;;1.97;1.87;;;22.30;48.50;;;;;;5030556;28;20553;-68
2023/03/10 02:49:09;;;;;;;2.80;2.40;;;22.30;48.60;;;;;;5029634;28;20451;-67
2023/03/10 02:51:44;;;;;;;2.30;2.10;;;22.30;48.50;;;;;;5030022;28;20482;-68
2023/03/10 02:54:15;;;;;;;2.40;2.20;;;22.30;48.50;;;;;;5029147;28;20557;-68
2023/03/10 02:56:44;;;;;;;2.77;2.20;;;22.30;48.50;;;;;;5031078;28;21037;-67
2023/03/10 02:59:15;;;;;;;2.30;2.10;;;22.30;48.50;;;;;;5026681;28;20489;-68
2023/03/10 03:01:48;;;;;;;2.87;2.53;;;22.30;48.50;;;;;;5024528;28;20479;-67
2023/03/10 03:04:18;;;;;;;3.57;2.13;;;22.30;48.50;;;;;;5025683;28;20471;-68
2023/03/10 03:06:47;;;;;;;5.00;2.33;;;22.30;48.60;;;;;;5028300;28;20466;-67
2023/03/10 03:09:16;;;;;;;2.93;2.43;;;22.30;48.60;;;;;;5030199;28;20467;-67
2023/03/10 03:11:46;;;;;;;2.63;2.43;;;22.30;48.70;;;;;;5022346;28;20499;-67
2023/03/10 03:14:16;;;;;;;2.57;2.37;;;22.30;48.70;;;;;;5027969;28;20499;-67
2023/03/10 03:16:48;;;;;;;2.10;1.80;;;22.30;48.70;;;;;;5029899;28;20471;-68
2023/03/10 03:19:16;;;;;;;3.03;1.97;;;22.20;48.70;;;;;;5031074;28;20476;-68
2023/03/10 03:21:48;;;;;;;1.90;1.80;;;22.20;48.70;;;;;;5031501;28;20574;-68
2023/03/10 03:24:19;;;;;;;2.67;2.00;;;22.20;48.70;;;;;;5020015;28;20472;-68
2023/03/10 03:26:48;;;;;;;2.33;1.97;;;22.20;48.70;;;;;;5030783;28;20454;-68
2023/03/10 03:29:22;;;;;;;2.13;2.00;;;22.20;48.60;;;;;;5030694;28;20470;-68
2023/03/10 03:31:50;;;;;;;1.90;1.80;;;22.20;48.70;;;;;;5030732;28;20469;-68
2023/03/10 03:34:22;;;;;;;1.87;1.30;;;22.20;48.70;;;;;;5029624;28;20474;-67
2023/03/10 03:36:54;;;;;;;2.30;1.90;;;22.20;48.70;;;;;;5030970;28;20459;-68
2023/03/10 03:39:28;;;;;;;2.27;2.07;;;22.20;48.80;;;;;;5027024;28;20823;-67
2023/03/10 03:42:00;;;;;;;3.27;2.60;;;22.20;48.80;;;;;;5039587;28;20486;-68
2023/03/10 03:44:35;;;;;;;2.00;1.70;;;22.20;48.80;;;;;;5030390;28;20471;-68
2023/03/10 03:47:04;;;;;;;3.57;2.00;;;22.20;49.00;;;;;;5030757;28;20463;-67
2023/03/10 03:49:34;;;;;;;2.40;2.20;;;22.20;49.00;;;;;;5030171;28;20796;-68
2023/03/10 03:52:03;;;;;;;1.87;1.60;;;22.20;49.10;;;;;;5028913;28;20490;-67
2023/03/10 03:54:31;;;;;;;1.57;1.47;;;22.20;49.20;;;;;;5023832;28;20836;-67
2023/03/10 03:57:00;;;;;;;2.23;1.70;;;22.20;49.20;;;;;;5017250;28;20506;-67
2023/03/10 03:59:29;;;;;;;1.53;1.43;;;22.20;49.20;;;;;;5028805;28;20974;-67
2023/03/10 04:02:46;;;;;;;2.20;1.13;;;22.20;49.20;;;;;;5024281;28;20467;-67
2023/03/10 04:05:16;;;;;;;1.40;1.30;;;22.20;49.60;;;;;;5025615;28;20464;-67
2023/03/10 04:07:47;;;;;;;2.20;1.43;;;22.20;49.60;;;;;;5022546;28;20469;-67
2023/03/10 04:10:19;;;;;;;1.40;1.30;;;22.20;49.50;;;;;;5029138;28;20465;-67
2023/03/10 04:12:47;;;;;;;1.67;1.30;;;22.20;49.70;;;;;;5029071;28;20522;-67
2023/03/10 04:15:16;;;;;;;2.30;1.60;;;22.10;49.70;;;;;;5030986;28;20490;-67
2023/03/10 04:17:45;;;;;;;2.10;1.33;;;22.10;49.80;;;;;;5029829;28;20555;-67
2023/03/10 04:20:13;;;;;;;2.00;1.17;;;22.10;49.80;;;;;;5030229;28;21111;-68
2023/03/10 04:22:46;;;;;;;0.80;0.80;;;22.10;49.90;;;;;;5025695;28;20459;-67
2023/03/10 04:25:14;;;;;;;1.00;0.80;;;22.10;50.00;;;;;;5029666;28;21281;-67
2023/03/10 04:27:43;;;;;;;0.90;0.83;;;22.10;50.20;;;;;;5030052;28;20459;-68
2023/03/10 04:30:13;;;;;;;0.90;0.90;;;22.00;50.20;;;;;;5030347;28;20504;-67
2023/03/10 04:32:45;;;;;;;1.57;0.93;;;22.10;50.30;;;;;;5030858;28;20462;-67
2023/03/10 04:35:16;;;;;;;0.93;0.67;;;22.10;50.40;;;;;;5028817;28;20553;-67
2023/03/10 04:37:46;;;;;;;0.70;0.70;;;22.10;50.40;;;;;;5029272;28;20464;-67
2023/03/10 04:40:15;;;;;;;0.50;0.50;;;22.10;50.50;;;;;;5029355;28;20466;-67
2023/03/10 04:42:44;;;;;;;0.70;0.60;;;22.10;50.40;;;;;;5028824;28;20463;-67
2023/03/10 04:45:13;;;;;;;0.60;0.60;;;22.10;50.50;;;;;;5028838;28;20550;-68
2023/03/10 04:47:43;;;;;;;1.03;0.50;;;22.10;50.50;;;;;;5029390;28;20460;-68
2023/03/10 04:50:16;;;;;;;0.50;0.50;;;22.10;50.50;;;;;;5030285;28;20466;-67
2023/03/10 04:52:48;;;;;;;0.53;0.50;;;22.10;50.60;;;;;;5029087;28;20494;-67
2023/03/10 04:55:19;;;;;;;0.70;0.70;;;22.00;50.50;;;;;;5028011;28;20483;-68
2023/03/10 04:57:48;;;;;;;0.43;0.43;;;22.00;50.60;;;;;;5029208;28;20468;-67
2023/03/10 05:00:18;;;;;;;0.47;0.47;;;22.00;50.50;;;;;;5024775;28;20524;-67
2023/03/10 05:02:47;;;;;;;0.63;0.63;;;22.00;50.60;;;;;;5042536;28;20463;-67
2023/03/10 05:05:15;;;;;;;0.90;0.60;;;22.00;50.70;;;;;;5028629;28;20464;-68
2023/03/10 05:07:47;;;;;;;0.50;0.50;;;22.00;50.70;;;;;;5029332;28;20470;-67
2023/03/10 05:10:15;;;;;;;0.50;0.50;;;22.00;50.80;;;;;;5029737;28;20827;-67
2023/03/10 05:12:43;;;;;;;0.60;0.50;;;22.00;50.70;;;;;;5032901;28;20461;-68
2023/03/10 05:15:12;;;;;;;0.40;0.40;;;22.00;50.90;;;;;;5017176;28;20479;-67
2023/03/10 05:17:41;;;;;;;1.03;0.50;;;22.00;50.80;;;;;;5031399;28;20562;-68
2023/03/10 05:20:11;;;;;;;0.80;0.50;;;22.00;50.80;;;;;;5014971;28;20455;-68
2023/03/10 05:22:39;;;;;;;0.50;0.50;;;22.00;50.80;;;;;;5021919;28;20455;-67
2023/03/10 05:25:12;;;;;;;0.40;0.40;;;22.00;50.80;;;;;;5033314;28;20471;-67
2023/03/10 05:27:41;;;;;;;1.07;0.40;;;22.00;50.90;;;;;;5045527;28;20509;-68
2023/03/10 05:30:13;;;;;;;0.40;0.40;;;22.10;50.80;;;;;;5016841;28;20495;-67
2023/03/10 05:32:43;;;;;;;0.40;0.40;;;22.10;50.80;;;;;;5030235;28;20471;-67
2023/03/10 05:35:12;;;;;;;0.40;0.40;;;22.10;50.90;;;;;;5028379;28;20479;-68
2023/03/10 05:37:43;;;;;;;0.53;0.30;;;22.10;50.90;;;;;;5032967;28;20462;-68
2023/03/10 05:40:18;;;;;;;0.80;0.40;;;22.10;50.80;;;;;;5031807;28;20467;-67
2023/03/10 05:42:48;;;;;;;0.37;0.37;;;22.10;50.80;;;;;;5027613;28;20523;-68
2023/03/10 05:45:18;;;;;;;0.90;0.53;;;22.20;50.80;;;;;;5029677;28;20481;-68
2023/03/10 05:47:47;;;;;;;0.60;0.53;;;22.20;50.80;;;;;;5035597;28;20855;-68
2023/03/10 05:50:17;;;;;;;1.03;0.50;;;22.20;50.70;;;;;;5029638;28;20471;-68
2023/03/10 05:52:46;;;;;;;0.50;0.40;;;22.20;50.80;;;;;;5027493;28;20830;-68
2023/03/10 05:55:18;;;;;;;0.50;0.50;;;22.20;50.80;;;;;;5015615;28;20489;-68
2023/03/10 05:57:48;;;;;;;0.40;0.40;;;22.10;50.70;;;;;;5014252;28;20478;-69
2023/03/10 06:00:17;;;;;;;4.40;0.53;;;22.10;50.80;;;;;;5023858;28;20991;-69
2023/03/10 06:02:55;;;;;;;0.50;0.50;;;22.10;50.60;;;;;;5025201;28;20466;-68
2023/03/10 06:05:24;;;;;;;1.57;0.60;;;22.10;50.70;;;;;;5029442;28;20884;-69
2023/03/10 06:07:52;;;;;;;0.67;0.50;;;22.10;50.70;;;;;;5026242;28;20452;-70
2023/03/10 06:10:21;;;;;;;0.50;0.50;;;22.10;50.90;;;;;;5032452;28;20463;-70
2023/03/10 06:12:50;;;;;;;0.70;0.60;;;22.10;50.90;;;;;;5031487;28;20957;-69
2023/03/10 06:15:18;;;;;;;1.27;0.80;;;22.10;51.00;;;;;;5030407;28;20452;-71
2023/03/10 06:17:46;;;;;;;0.60;0.53;;;22.10;51.10;;;;;;5031987;28;20458;-69
2023/03/10 06:20:15;;;;;;;1.00;0.90;;;22.10;51.10;;;;;;5030712;28;20458;-69
2023/03/10 06:22:43;;;;;;;0.80;0.60;;;22.10;51.10;;;;;;5025717;28;21062;-69
2023/03/10 06:25:11;;;;;;;1.83;0.53;;;22.10;51.20;;;;;;5022502;28;20981;-69
2023/03/10 06:27:41;;;;;;;1.23;0.60;;;22.10;51.30;;;;;;5018173;28;20459;-69
2023/03/10 06:30:10;;;;;;;1.83;0.80;;;22.10;51.30;;;;;;5014943;28;20534;-69
2023/03/10 06:32:39;;;;;;;1.33;1.13;;;22.10;51.20;;;;;;5019186;28;20496;-69
2023/03/10 06:35:08;;;;;;;1.47;0.80;;;22.10;51.20;;;;;;5026044;28;20456;-70
2023/03/10 06:37:36;;;;;;;0.77;0.70;;;22.10;51.10;;;;;;5039251;28;20477;-69
2023/03/10 06:40:07;;;;;;;0.77;0.60;;;22.10;51.10;;;;;;5030386;28;20550;-69
2023/03/10 06:42:35;;;;;;;0.97;0.90;;;22.10;51.10;;;;;;5025368;28;20467;-69
2023/03/10 06:45:05;;;;;;;1.10;1.00;;;22.20;51.10;;;;;;5027196;28;20453;-69
2023/03/10 06:47:34;;;;;;;0.73;0.73;;;22.20;51.10;;;;;;5019472;28;20501;-69
2023/03/10 06:50:03;;;;;;;4.07;0.60;;;22.20;51.10;;;;;;5025665;28;20451;-69
2023/03/10 06:52:33;;;;;;;1.50;0.70;;;22.20;51.10;;;;;;5023247;28;20498;-69
2023/03/10 06:55:01;;;;;;;2.13;0.90;;;22.20;51.10;;;;;;5021503;28;20468;-69
2023/03/10 06:57:29;;;;;;;2.13;0.97;;;22.20;51.10;;;;;;5022832;28;20571;-69
2023/03/10 06:59:58;;;;;;;2.87;1.10;;;22.30;51.30;;;;;;5023513;28;20456;-69
2023/03/10 07:02:27;;;;;;;1.80;1.10;;;22.30;51.90;;;;;;5020966;28;20526;-69
2023/03/10 07:04:55;;;;;;;1.30;1.20;;;22.30;51.60;;;;;;5013595;28;20498;-69
2023/03/10 07:07:24;;;;;;;1.10;1.00;;;22.40;51.60;;;;;;5016489;28;20456;-70
2023/03/10 07:09:52;;;;;;;1.00;0.80;;;22.40;51.60;;;;;;5022824;28;21042;-69
2023/03/10 07:12:21;;;;;;;3.67;1.13;;;22.50;51.70;;;;;;5018443;28;20496;-69
2023/03/10 07:14:49;;;;;;;3.50;1.17;;;22.50;51.90;;;;;;5021500;28;20491;-69
2023/03/10 07:17:18;;;;;;;1.57;1.00;;;22.50;52.00;;;;;;5030748;28;20566;-69
2023/03/10 07:19:47;;;;;;;1.10;0.77;;;22.50;52.10;;;;;;5026761;28;21001;-69
2023/03/10 07:22:16;;;;;;;3.10;1.60;;;22.50;52.10;;;;;;5011838;28;20444;-69
2023/03/10 07:24:44;;;;;;;1.83;1.03;;;22.50;52.30;;;;;;5017377;28;21416;-69
2023/03/10 07:27:12;;;;;;;1.50;1.40;;;22.50;52.70;;;;;;5026357;28;20471;-69
2023/03/10 07:29:40;;;;;;;3.23;1.30;;;22.50;52.90;;;;;;5023117;28;20783;-69
2023/03/10 07:32:08;;;;;;;1.70;1.10;;;22.50;52.80;;;;;;5028507;28;20544;-79
2023/03/10 07:34:37;;;;;;;0.80;0.80;;;22.50;52.90;;;;;;5024666;28;20458;-77
2023/03/10 07:37:06;;;;;;;3.03;1.27;;;22.50;53.30;;;;;;5025238;28;20564;-77
2023/03/10 07:39:35;;;;;;;1.80;1.20;;;22.50;53.10;;;;;;5027367;28;20860;-77
2023/03/10 07:42:03;;;;;;;3.07;0.97;;;22.50;53.00;;;;;;5031404;28;20542;-76
2023/03/10 07:44:33;;;;;;;3.17;1.37;;;22.60;52.80;;;;;;5029083;28;20704;-79
2023/03/10 07:47:01;;;;;;;2.47;1.93;;;22.60;52.80;;;;;;5029111;28;20448;-77
2023/03/10 07:49:29;;;;;;;1.13;0.90;;;22.60;52.70;;;;;;5029265;28;20458;-78
2023/03/10 07:51:57;;;;;;;1.53;1.00;;;22.70;52.60;;;;;;5016097;28;20500;-78
2023/03/10 07:54:27;;;;;;;0.83;0.80;;;22.70;52.70;;;;;;5030988;28;20463;-77
2023/03/10 07:56:55;;;;;;;4.57;1.13;;;22.70;52.60;;;;;;5031050;28;20503;-77
2023/03/10 07:59:23;;;;;;;1.63;1.20;;;22.70;52.50;;;;;;5030942;28;20483;-79
2023/03/10 08:01:51;;;;;;;2.00;1.07;;;22.80;52.50;;;;;;5019887;28;20491;-80
2023/03/10 08:04:20;;;;;;;2.43;1.73;;;22.80;52.40;;;;;;5020561;28;20460;-77
2023/03/10 08:06:48;;;;;;;2.53;1.27;;;22.80;52.40;;;;;;5023458;28;21014;-77
2023/03/10 08:09:16;;;;;;;1.50;1.00;;;22.90;52.40;;;;;;5020519;28;20457;-77
2023/03/10 08:11:46;;;;;;;1.67;1.00;;;22.90;52.30;;;;;;5015747;28;20522;-79
2023/03/10 08:14:17;;;;;;;1.90;1.30;;;22.90;52.40;;;;;;5029474;28;20456;-80
2023/03/10 08:16:48;;;;;;;4.17;1.03;;;22.90;52.30;;;;;;5024061;28;21376;-75
2023/03/10 08:19:16;;;;;;;1.37;1.27;;;22.90;52.30;;;;;;5024848;28;20480;-78
2023/03/10 08:21:44;;;;;;;2.47;1.37;;;22.90;52.40;;;;;;5017320;28;20961;-78
2023/03/10 08:24:13;;;;;;;1.73;0.93;;;23.00;52.40;;;;;;5021545;28;20459;-78
2023/03/10 08:26:41;;;;;;;0.77;0.77;;;23.00;52.30;;;;;;5021207;28;20456;-78
2023/03/10 08:29:10;;;;;;;1.40;0.83;;;23.00;52.40;;;;;;5025734;28;20474;-78
2023/03/10 08:31:39;;;;;;;1.57;1.20;;;23.00;52.40;;;;;;5019581;28;20975;-78
2023/03/10 08:34:07;;;;;;;1.70;0.80;;;23.00;52.30;;;;;;5020441;28;20505;-77
2023/03/10 08:36:35;;;;;;;0.90;0.73;;;23.00;52.30;;;;;;5022486;28;20514;-78
2023/03/10 08:39:05;;;;;;;0.80;0.80;;;23.00;52.40;;;;;;5019102;28;20543;-79
2023/03/10 08:41:35;;;;;;;1.63;0.97;;;23.00;52.50;;;;;;5018232;28;20478;-79
2023/03/10 08:44:05;;;;;;;0.90;0.80;;;23.10;52.30;;;;;;5026597;28;20475;-78
2023/03/10 08:46:35;;;;;;;0.83;0.60;;;23.10;52.40;;;;;;5014668;28;20459;-78
2023/03/10 08:49:03;;;;;;;1.30;1.07;;;23.10;52.20;;;;;;5022074;28;20449;-77
2023/03/10 08:51:31;;;;;;;1.10;0.87;;;23.10;52.30;;;;;;5022616;28;20491;-76
2023/03/10 08:54:00;;;;;;;1.30;0.80;;;23.10;52.20;;;;;;5023347;28;20452;-76
2023/03/10 08:56:28;;;;;;;0.80;0.80;;;23.10;52.20;;;;;;5026766;28;20545;-79
2023/03/10 08:58:58;;;;;;;0.83;0.80;;;23.10;52.20;;;;;;5014164;28;20515;-80
2023/03/10 09:01:27;;;;;;;0.97;0.87;;;23.10;52.30;;;;;;5021979;28;20480;-80
2023/03/10 09:03:57;;;;;;;2.37;0.90;;;23.10;52.20;;;;;;5019356;28;20456;-76
2023/03/10 09:06:26;;;;;;;0.60;0.50;;;23.10;52.20;;;;;;5017107;28;21021;-76
2023/03/10 09:08:54;;;;;;;1.50;1.40;;;23.10;52.20;;;;;;5015152;28;20451;-79
2023/03/10 09:11:25;;;;;;;1.40;0.60;;;23.20;52.20;;;;;;5021454;28;20928;-79
2023/03/10 09:13:54;;;;;;;1.10;0.90;;;23.20;52.10;;;;;;5021063;28;20511;-83
2023/03/10 09:16:22;;;;;;;1.97;1.70;;;23.20;52.10;;;;;;5018057;28;20461;-78
2023/03/10 09:18:50;;;;;;;1.10;0.90;;;23.20;52.20;;;;;;5023612;28;20479;-79
2023/03/10 09:21:20;;;;;;;2.00;0.70;;;23.20;52.30;;;;;;5013555;28;20514;-76
2023/03/10 09:23:51;;;;;;;1.50;1.07;;;23.20;52.20;;;;;;5021064;28;20509;-77
2023/03/10 09:26:20;;;;;;;0.70;0.70;;;23.20;52.30;;;;;;5021132;28;20950;-83
2023/03/10 09:28:49;;;;;;;2.50;0.70;;;23.20;52.20;;;;;;5018527;28;20494;-80
2023/03/10 09:31:20;;;;;;;1.03;0.63;;;23.20;52.30;;;;;;5028219;28;20514;-83
2023/03/10 09:33:49;;;;;;;1.00;0.70;;;23.20;52.30;;;;;;5026231;28;20456;-79
2023/03/10 09:36:18;;;;;;;2.00;1.23;;;23.20;52.30;;;;;;5029226;28;20483;-78
2023/03/10 09:38:50;;;;;;;1.20;0.80;;;23.20;52.40;;;;;;5028632;28;20480;-80
2023/03/10 09:41:43;;;;;;;0.90;0.70;;;23.20;52.30;;;;;;5028998;28;20459;-77
2023/03/10 09:44:25;;;;;;;1.00;0.83;;;23.20;52.20;;;;;;5026262;28;20880;-76
2023/03/10 09:47:15;;;;;;;0.60;0.60;;;23.20;52.30;;;;;;5024330;28;20837;-77
2023/03/10 09:49:55;;;;;;;3.50;0.90;;;23.20;52.30;;;;;;5008957;28;20452;-79
2023/03/10 09:52:28;;;;;;;1.10;0.60;;;23.20;52.20;;;;;;5018919;28;20896;-78
2023/03/10 09:55:05;;;;;;;0.50;0.50;;;23.20;52.20;;;;;;5022918;28;20447;-76
2023/03/10 09:57:34;;;;;;;0.60;0.53;;;23.30;52.20;;;;;;5022904;28;20997;-76
2023/03/10 10:00:10;;;;;;;1.33;0.60;;;23.30;52.10;;;;;;5017653;28;20869;-80
2023/03/10 10:02:44;;;;;;;3.90;0.90;;;23.30;52.10;;;;;;5025680;28;20808;-81
2023/03/10 10:05:19;;;;;;;1.27;0.70;;;23.40;52.00;;;;;;5027976;28;20499;-77
2023/03/10 10:07:51;;;;;;;0.70;0.60;;;23.40;52.10;;;;;;5021536;28;20484;-78
2023/03/10 10:10:25;;;;;;;0.83;0.50;;;23.40;52.10;;;;;;5022881;28;20505;-79
2023/03/10 10:12:54;;;;;;;0.70;0.60;;;23.50;52.00;;;;;;5022457;28;20896;-80
2023/03/10 10:15:25;;;;;;;0.70;0.70;;;23.50;52.00;;;;;;5022279;28;20514;-78
2023/03/10 10:18:06;;;;;;;1.57;0.80;;;23.50;51.90;;;;;;5027988;28;20565;-78
2023/03/10 10:20:49;;;;;;;1.67;0.60;;;23.50;52.00;;;;;;5023099;28;20471;-77
2023/03/10 10:23:24;;;;;;;0.60;0.60;;;23.60;51.80;;;;;;5027032;28;20970;-66
2023/03/10 10:25:55;;;;;;;0.73;0.60;;;23.60;51.70;;;;;;5025880;28;20486;-66
2023/03/10 10:28:32;;;;;;;0.40;0.40;;;23.60;51.70;;;;;;5024470;28;20794;-65
2023/03/10 10:31:15;;;;;;;0.60;0.60;;;23.60;51.60;;;;;;5035219;28;20496;-66
2023/03/10 10:33:56;;;;;;;0.93;0.57;;;23.60;51.40;;;;;;5025843;28;20463;-66
2023/03/10 10:36:27;;;;;;;2.60;0.80;;;23.70;51.30;;;;;;5026825;28;20452;-66
2023/03/10 10:38:56;;;;;;;1.17;0.60;;;23.70;51.40;;;;;;5024641;28;20766;-66
2023/03/10 10:41:28;;;;;;;2.20;0.50;;;23.70;51.40;;;;;;5027430;28;20463;-66
2023/03/10 10:43:59;;;;;;;1.60;0.60;;;23.70;51.40;;;;;;5018393;28;20448;-66
2023/03/10 10:46:31;;;;;;;1.77;0.70;;;23.60;51.40;;;;;;5022096;28;21007;-66
2023/03/10 10:49:07;;;;;;;2.20;0.77;;;23.70;51.40;;;;;;5027478;28;20467;-66
2023/03/10 10:51:37;;;;;;;0.87;0.50;;;23.70;51.30;;;;;;5028838;28;20464;-66
2023/03/10 10:54:26;;;;;;;0.93;0.77;;;23.60;51.20;;;;;;5013616;28;20561;-66
2023/03/10 10:56:58;;;;;;;1.27;0.70;;;23.60;51.30;;;;;;5021225;28;20454;-66
2023/03/10 10:59:31;;;;;;;1.53;0.63;;;23.70;51.20;;;;;;5028601;28;21071;-66
2023/03/10 11:02:01;;;;;;;0.43;0.40;;;23.60;51.20;;;;;;5019671;28;20444;-68
2023/03/10 11:04:42;;;;;;;0.50;0.50;;;23.60;51.20;;;;;;5020634;28;21102;-67
2023/03/10 11:07:16;;;;;;;1.30;0.70;;;23.60;51.20;;;;;;5020546;28;20474;-66
2023/03/10 11:09:44;;;;;;;0.57;0.57;;;23.60;51.20;;;;;;5021272;28;20465;-67
2023/03/10 11:12:19;;;;;;;0.83;0.70;;;23.70;51.20;;;;;;5026931;28;20965;-67
2023/03/10 11:15:00;;;;;;;2.00;0.60;;;23.70;51.20;;;;;;5012172;28;20456;-67
2023/03/10 11:17:34;;;;;;;0.80;0.50;;;23.80;51.10;;;;;;5018604;28;20836;-67
2023/03/10 11:20:12;;;;;;;0.73;0.60;;;23.90;51.10;;;;;;5023009;28;20501;-66
2023/03/10 11:22:44;;;;;;;0.53;0.47;;;24.10;50.80;;;;;;5025522;28;20577;-68
2023/03/10 11:25:24;;;;;;;0.50;0.50;;;24.20;50.80;;;;;;5023976;28;20456;-67
2023/03/10 11:28:10;;;;;;;2.70;1.60;;;24.30;50.50;;;;;;5012428;28;20483;-66
2023/03/10 11:30:42;;;;;;;1.37;0.80;;;24.30;50.30;;;;;;5027431;28;20503;-66
2023/03/10 11:33:22;;;;;;;0.50;0.50;;;24.30;50.20;;;;;;5013657;28;21162;-67
2023/03/10 11:35:53;;;;;;;0.87;0.60;;;24.30;50.10;;;;;;5021878;28;20450;-69
2023/03/10 11:38:36;;;;;;;0.80;0.77;;;24.30;50.20;;;;;;5025452;28;20754;-67
2023/03/10 11:41:10;;;;;;;1.10;0.50;;;24.30;50.20;;;;;;5022198;28;20522;-67
2023/03/10 11:43:50;;;;;;;0.50;0.50;;;24.20;50.20;;;;;;5013968;28;20932;-67
2023/03/10 11:46:24;;;;;;;0.63;0.60;;;24.20;50.30;;;;;;5020619;28;20462;-67
2023/03/10 11:49:01;;;;;;;1.40;0.50;;;24.20;50.40;;;;;;5023696;28;20477;-67
2023/03/10 11:51:35;;;;;;;0.90;0.73;;;24.10;50.50;;;;;;5028408;28;20496;-66
2023/03/10 11:54:10;;;;;;;0.50;0.50;;;24.10;50.40;;;;;;5025450;28;20545;-66
2023/03/10 11:56:39;;;;;;;0.80;0.63;;;24.10;50.60;;;;;;5024769;28;20515;-66
2023/03/10 11:59:14;;;;;;;0.90;0.50;;;24.10;50.60;;;;;;5024781;28;20579;-66
2023/03/10 12:01:46;;;;;;;2.00;0.70;;;24.00;50.60;;;;;;5025831;28;20522;-68
2023/03/10 12:04:20;;;;;;;0.60;0.50;;;24.00;50.70;;;;;;5018113;28;20960;-67
2023/03/10 12:06:52;;;;;;;0.97;0.50;;;24.00;50.70;;;;;;5015665;28;20459;-67
2023/03/10 12:09:39;;;;;;;4.00;0.80;;;24.00;50.70;;;;;;5021258;28;21021;-66
2023/03/10 12:12:12;;;;;;;1.47;0.70;;;24.00;50.80;;;;;;5025765;28;20976;-67
2023/03/10 12:14:43;;;;;;;1.40;0.50;;;24.00;50.80;;;;;;5022292;28;20544;-67
2023/03/10 12:17:12;;;;;;;0.63;0.47;;;24.00;50.70;;;;;;5022898;28;20446;-67
2023/03/10 12:20:22;;;;;;;0.70;0.50;;;24.00;50.80;;;;;;5021934;28;20574;-65
2023/03/10 12:22:51;;;;;;;1.00;0.97;;;24.00;50.60;;;;;;5017690;28;20489;-70
2023/03/10 12:25:42;;;;;;;1.80;0.80;;;24.00;50.60;;;;;;5023007;28;21268;-70
2023/03/10 12:28:23;;;;;;;1.33;0.57;;;24.00;50.50;;;;;;5023365;28;20450;-70
2023/03/10 12:30:56;;;;;;;0.87;0.50;;;23.90;50.50;;;;;;5024445;28;20868;-70
2023/03/10 12:33:52;;;;;;;1.27;0.63;;;23.90;50.50;;;;;;5015623;28;20472;-70
2023/03/10 12:36:32;;;;;;;1.20;0.80;;;23.90;50.60;;;;;;4973865;28;20471;-67
2023/03/10 12:39:01;;;;;;;3.40;0.67;;;23.80;50.60;;;;;;5030023;28;20989;-70
2023/03/10 12:41:44;;;;;;;0.80;0.60;;;23.80;50.70;;;;;;5029606;28;20447;-71
2023/03/10 12:44:30;;;;;;;0.63;0.50;;;23.70;50.70;;;;;;5023018;28;20902;-71
2023/03/10 12:47:12;;;;;;;0.90;0.67;;;23.70;50.80;;;;;;5028151;28;20460;-71
2023/03/10 12:49:49;;;;;;;0.50;0.40;;;23.70;50.80;;;;;;5028281;28;20463;-71
2023/03/10 12:52:26;;;;;;;0.87;0.77;;;23.60;50.80;;;;;;5035057;28;20483;-71
2023/03/10 12:55:03;;;;;;;2.30;0.50;;;23.60;50.80;;;;;;5029591;28;20547;-71
2023/03/10 12:57:36;;;;;;;0.73;0.70;;;23.60;51.00;;;;;;5030215;28;20459;-71
2023/03/10 13:00:11;;;;;;;0.80;0.63;;;23.50;51.00;;;;;;5021035;28;20592;-71
2023/03/10 13:02:48;;;;;;;1.80;0.80;;;23.50;51.20;;;;;;5028465;28;20449;-71
2023/03/10 13:05:21;;;;;;;2.00;0.50;;;23.50;51.30;;;;;;5021286;28;20546;-71
2023/03/10 13:07:53;;;;;;;0.63;0.40;;;23.40;51.20;;;;;;5026244;28;20483;-71
2023/03/10 13:10:23;;;;;;;1.30;0.67;;;23.40;51.20;;;;;;5017620;28;21130;-71